Time;durP1;ratioP1;P1;durP2;ratioP2;P2;SDS_P1;SDS_P2;PMS_P1;PMS_P2;Temp;Humidity;BMP_temperature;BMP_pressure;BME280_temperature;BME280_humidity;BME280_pressure;Samples;Min_cycle;Max_cycle;Signal;HPM_P1;HPM_P2
2022/03/14 00:00:20;;;;;;;8.77;1.77;;;8.60;83.10;;;;;;5128615;27;20019;-82
2022/03/14 00:02:47;;;;;;;10.90;2.15;;;8.70;83.00;;;;;;5130609;27;20053;-83
2022/03/14 00:05:15;;;;;;;6.07;2.13;;;8.70;82.60;;;;;;5130871;27;20019;-83
2022/03/14 00:07:42;;;;;;;8.90;2.50;;;8.70;82.90;;;;;;5130924;27;20023;-83
2022/03/14 00:10:08;;;;;;;7.32;1.73;;;8.70;82.70;;;;;;5112253;27;20482;-80
2022/03/14 00:12:34;;;;;;;9.95;2.58;;;8.70;83.30;;;;;;5131323;27;20050;-80
2022/03/14 00:15:00;;;;;;;9.05;2.20;;;8.70;83.00;;;;;;5132224;27;20127;-80
2022/03/14 00:17:29;;;;;;;8.45;2.15;;;8.70;83.20;;;;;;5130318;27;20015;-79
2022/03/14 00:19:57;;;;;;;7.28;1.98;;;8.80;83.40;;;;;;5130564;27;20023;-79
2022/03/14 00:22:23;;;;;;;7.28;1.73;;;8.70;82.40;;;;;;5130463;27;20192;-79
2022/03/14 00:24:49;;;;;;;8.48;2.20;;;8.70;83.10;;;;;;5130264;28;20144;-79
2022/03/14 00:27:15;;;;;;;8.15;1.80;;;8.80;83.80;;;;;;5127071;27;20511;-79
2022/03/14 00:29:41;;;;;;;9.00;1.83;;;8.80;83.30;;;;;;5128118;27;20478;-81
2022/03/14 00:32:07;;;;;;;11.45;2.13;;;8.80;83.20;;;;;;5130328;27;20381;-81
2022/03/14 00:34:33;;;;;;;4.68;1.50;;;8.80;84.10;;;;;;5130527;27;20083;-81
2022/03/14 00:36:59;;;;;;;8.10;1.45;;;8.90;84.00;;;;;;5130669;27;20033;-81
2022/03/14 00:39:24;;;;;;;5.90;1.52;;;8.80;83.70;;;;;;5132550;27;20050;-80
2022/03/14 00:41:51;;;;;;;3.95;1.85;;;8.80;84.00;;;;;;5129590;27;20054;-81
2022/03/14 00:44:17;;;;;;;10.55;1.95;;;8.90;84.20;;;;;;5130683;27;20019;-81
2022/03/14 00:46:43;;;;;;;7.65;1.50;;;8.80;84.50;;;;;;5129881;27;20035;-82
2022/03/14 00:49:10;;;;;;;11.75;2.17;;;8.80;84.00;;;;;;5112042;27;20038;-82
2022/03/14 00:51:36;;;;;;;7.95;1.90;;;8.90;83.90;;;;;;5131125;27;20022;-82
2022/03/14 00:54:03;;;;;;;9.80;1.75;;;8.80;84.00;;;;;;5132540;27;20023;-82
2022/03/14 00:56:29;;;;;;;8.60;2.05;;;8.90;84.00;;;;;;5130496;27;20018;-82
2022/03/14 00:58:55;;;;;;;9.50;2.25;;;8.90;84.10;;;;;;5130246;27;20035;-82
2022/03/14 01:01:22;;;;;;;7.28;1.95;;;8.90;83.30;;;;;;5130167;27;20023;-82
2022/03/14 01:03:47;;;;;;;13.77;2.40;;;8.90;84.40;;;;;;5130693;27;20019;-82
2022/03/14 01:06:13;;;;;;;9.90;2.03;;;8.90;84.30;;;;;;5132425;28;20089;-82
2022/03/14 01:08:40;;;;;;;5.68;1.80;;;8.90;84.00;;;;;;5130389;27;20529;-82
2022/03/14 01:11:06;;;;;;;6.00;1.48;;;8.90;84.00;;;;;;5130252;28;20026;-82
2022/03/14 01:13:31;;;;;;;7.57;1.60;;;8.90;84.10;;;;;;5130022;27;20023;-82
2022/03/14 01:15:59;;;;;;;9.95;2.45;;;8.90;84.40;;;;;;5130622;27;20051;-82
2022/03/14 01:18:25;;;;;;;11.55;2.85;;;9.00;84.90;;;;;;5132105;27;20024;-82
2022/03/14 01:20:51;;;;;;;6.45;1.70;;;9.00;84.50;;;;;;5110827;28;20110;-82
2022/03/14 01:23:17;;;;;;;7.60;1.85;;;9.00;84.70;;;;;;5130296;27;20011;-82
2022/03/14 01:25:45;;;;;;;9.70;1.90;;;9.00;84.30;;;;;;5130379;27;20417;-82
2022/03/14 01:28:11;;;;;;;9.82;2.03;;;9.00;84.30;;;;;;5130090;27;20491;-81
2022/03/14 01:30:37;;;;;;;6.43;1.95;;;9.10;84.80;;;;;;5112141;28;20027;-81
2022/03/14 01:33:03;;;;;;;6.95;1.88;;;9.00;84.40;;;;;;5132117;27;20487;-81
2022/03/14 01:35:29;;;;;;;6.75;1.52;;;9.00;84.40;;;;;;5130257;27;20102;-81
2022/03/14 01:37:56;;;;;;;6.10;1.88;;;9.10;84.70;;;;;;5132929;27;20106;-81
2022/03/14 01:40:21;;;;;;;7.57;2.20;;;9.10;84.40;;;;;;5134081;27;20069;-81
2022/03/14 01:42:47;;;;;;;8.35;1.95;;;9.10;84.80;;;;;;5115141;27;20514;-81
2022/03/14 01:45:14;;;;;;;8.30;2.00;;;9.10;84.80;;;;;;5135866;27;20542;-81
2022/03/14 01:47:41;;;;;;;7.90;1.77;;;9.10;85.10;;;;;;5133775;27;20023;-81
2022/03/14 01:50:08;;;;;;;9.30;1.80;;;9.10;84.70;;;;;;5133632;27;20038;-81
2022/03/14 01:52:34;;;;;;;8.50;1.65;;;9.10;85.20;;;;;;5133562;27;20034;-82
2022/03/14 01:55:01;;;;;;;8.43;1.95;;;9.10;85.00;;;;;;5115063;27;20019;-82
2022/03/14 01:57:27;;;;;;;6.10;1.88;;;9.10;84.70;;;;;;5134947;27;20110;-82
2022/03/14 01:59:54;;;;;;;11.98;2.17;;;9.10;85.60;;;;;;5132641;27;20472;-82
2022/03/14 02:02:20;;;;;;;9.02;1.73;;;9.10;85.00;;;;;;5132830;27;20444;-82
2022/03/14 02:04:47;;;;;;;5.05;1.60;;;9.10;85.30;;;;;;5114755;27;20119;-82
2022/03/14 02:07:12;;;;;;;5.32;2.08;;;9.10;85.00;;;;;;5114809;27;20026;-82
2022/03/14 02:09:38;;;;;;;7.18;2.08;;;9.10;85.10;;;;;;5133306;27;20027;-81
2022/03/14 02:12:05;;;;;;;8.20;1.70;;;9.10;85.30;;;;;;5116521;27;20034;-81
2022/03/14 02:14:31;;;;;;;6.57;1.95;;;9.10;85.30;;;;;;5133113;27;20016;-81
2022/03/14 02:16:56;;;;;;;4.68;1.80;;;9.10;85.60;;;;;;5133218;27;20031;-81
2022/03/14 02:19:22;;;;;;;6.90;1.70;;;9.10;86.50;;;;;;5133211;27;20027;-81
2022/03/14 02:21:48;;;;;;;6.88;1.80;;;9.10;86.20;;;;;;5114752;27;20019;-81
2022/03/14 02:24:14;;;;;;;5.47;1.88;;;9.20;85.90;;;;;;5135092;27;20031;-81
2022/03/14 02:26:41;;;;;;;9.48;2.35;;;9.20;85.40;;;;;;5132302;27;20438;-81
2022/03/14 02:29:11;;;;;;;7.57;2.30;;;9.20;85.50;;;;;;5132637;27;20031;-81
2022/03/14 02:31:37;;;;;;;7.75;1.90;;;9.20;85.60;;;;;;5132859;27;20076;-81
2022/03/14 02:34:07;;;;;;;10.40;2.10;;;9.20;85.60;;;;;;5133101;27;20486;-81
2022/03/14 02:36:43;;;;;;;7.65;2.00;;;9.30;85.70;;;;;;5133707;27;20051;-82
2022/03/14 02:39:09;;;;;;;7.03;1.88;;;9.30;85.40;;;;;;5115280;27;20044;-82
2022/03/14 02:41:36;;;;;;;6.03;1.90;;;9.30;86.20;;;;;;5113912;27;20566;-80
2022/03/14 02:44:06;;;;;;;8.35;1.88;;;9.20;85.30;;;;;;5114183;27;20029;-80
2022/03/14 02:46:34;;;;;;;7.90;2.10;;;9.30;85.90;;;;;;5113996;27;20057;-79
2022/03/14 02:49:00;;;;;;;7.38;1.92;;;9.30;86.00;;;;;;5131726;27;20029;-80
2022/03/14 02:51:26;;;;;;;8.55;2.13;;;9.30;86.00;;;;;;5134029;27;20023;-80
2022/03/14 02:53:53;;;;;;;10.57;2.10;;;9.30;85.60;;;;;;5114624;27;20038;-81
2022/03/14 02:56:20;;;;;;;11.07;2.40;;;9.20;85.90;;;;;;5113574;27;20019;-81
2022/03/14 02:58:47;;;;;;;8.38;2.00;;;9.30;85.80;;;;;;5132273;27;20035;-81
2022/03/14 03:01:15;;;;;;;7.30;1.90;;;9.20;86.70;;;;;;5113772;27;20042;-81
2022/03/14 03:03:41;;;;;;;7.47;2.10;;;9.20;85.20;;;;;;5132361;27;20027;-81
2022/03/14 03:06:07;;;;;;;7.80;2.05;;;9.20;85.60;;;;;;5133200;27;20081;-81
2022/03/14 03:08:34;;;;;;;6.20;1.80;;;9.20;85.90;;;;;;5131326;27;20479;-81
2022/03/14 03:11:00;;;;;;;7.28;1.80;;;9.20;85.50;;;;;;5131068;27;20019;-81
2022/03/14 03:13:27;;;;;;;11.05;2.10;;;9.10;86.50;;;;;;5131326;27;20414;-80
2022/03/14 03:15:53;;;;;;;9.32;2.30;;;9.10;85.20;;;;;;5130559;27;20022;-81
2022/03/14 03:18:19;;;;;;;8.85;1.90;;;9.10;85.60;;;;;;5133509;27;20031;-81
2022/03/14 03:20:45;;;;;;;7.95;2.03;;;9.10;85.70;;;;;;5131094;27;20064;-81
2022/03/14 03:23:11;;;;;;;6.50;1.98;;;9.00;85.30;;;;;;5112600;27;20046;-81
2022/03/14 03:25:37;;;;;;;4.82;1.73;;;9.00;85.50;;;;;;5130868;27;20092;-81
2022/03/14 03:28:02;;;;;;;4.88;1.98;;;8.90;85.50;;;;;;5131245;27;20031;-81
2022/03/14 03:30:28;;;;;;;7.82;1.70;;;8.90;85.60;;;;;;5132781;27;20555;-81
2022/03/14 03:32:53;;;;;;;8.77;1.90;;;8.90;86.30;;;;;;5113454;27;20023;-81
2022/03/14 03:35:19;;;;;;;6.82;2.05;;;9.00;86.40;;;;;;5130785;27;20035;-81
2022/03/14 03:37:45;;;;;;;4.65;1.80;;;9.00;86.30;;;;;;5130780;27;20023;-81
2022/03/14 03:40:11;;;;;;;6.57;1.58;;;9.00;86.40;;;;;;5131096;27;20037;-81
2022/03/14 03:42:37;;;;;;;6.32;2.00;;;9.00;86.60;;;;;;5131004;27;20395;-81
2022/03/14 03:45:03;;;;;;;10.98;2.85;;;9.00;86.60;;;;;;5112079;27;20043;-81
2022/03/14 03:47:29;;;;;;;7.88;1.98;;;9.00;86.60;;;;;;5131180;27;20029;-82
2022/03/14 03:49:55;;;;;;;7.95;2.10;;;9.00;86.60;;;;;;5112098;27;20106;-82
2022/03/14 03:52:20;;;;;;;4.85;1.63;;;9.00;86.60;;;;;;5130894;27;20019;-81
2022/03/14 03:54:46;;;;;;;8.55;1.95;;;9.00;87.30;;;;;;5129914;27;20042;-81
2022/03/14 03:57:12;;;;;;;7.07;2.05;;;9.00;86.80;;;;;;5131966;27;20019;-82
2022/03/14 03:59:38;;;;;;;6.35;1.88;;;8.90;86.50;;;;;;5112488;27;20148;-82
2022/03/14 04:02:05;;;;;;;6.25;2.10;;;8.90;86.60;;;;;;5111894;27;20118;-82
2022/03/14 04:04:30;;;;;;;8.35;1.98;;;8.90;86.90;;;;;;5130352;27;20026;-82
2022/03/14 04:06:57;;;;;;;7.45;2.35;;;8.90;86.50;;;;;;5130490;27;20027;-82
2022/03/14 04:09:25;;;;;;;5.72;1.95;;;8.90;86.50;;;;;;5114078;27;20027;-82
2022/03/14 04:11:51;;;;;;;7.10;2.38;;;8.90;86.60;;;;;;5131191;27;20015;-82
2022/03/14 04:14:17;;;;;;;5.97;1.98;;;8.80;87.00;;;;;;5130425;27;20049;-80
2022/03/14 04:16:43;;;;;;;8.05;2.10;;;8.80;87.10;;;;;;5112004;27;20027;-80
2022/03/14 04:19:08;;;;;;;6.95;2.13;;;8.80;86.70;;;;;;5130278;27;20034;-80
2022/03/14 04:21:34;;;;;;;7.45;1.77;;;8.80;87.10;;;;;;5131341;27;20023;-80
2022/03/14 04:24:03;;;;;;;6.70;1.98;;;8.80;86.80;;;;;;5131491;27;20483;-80
2022/03/14 04:26:29;;;;;;;7.40;1.98;;;8.80;87.50;;;;;;5130234;27;20411;-79
2022/03/14 04:28:54;;;;;;;6.53;2.03;;;8.70;86.50;;;;;;5130261;27;20522;-80
2022/03/14 04:31:21;;;;;;;5.45;1.88;;;8.80;87.30;;;;;;5130323;27;20066;-80
2022/03/14 04:33:47;;;;;;;4.88;1.80;;;8.80;87.10;;;;;;5129762;27;20094;-80
2022/03/14 04:36:13;;;;;;;10.45;2.20;;;8.80;87.10;;;;;;5131481;27;20555;-79
2022/03/14 04:38:39;;;;;;;9.57;2.10;;;8.80;87.20;;;;;;5129753;27;20118;-79
2022/03/14 04:41:05;;;;;;;6.57;1.83;;;8.80;87.90;;;;;;5129960;27;20114;-80
2022/03/14 04:43:31;;;;;;;7.10;1.98;;;8.80;87.30;;;;;;5130335;27;20106;-80
2022/03/14 04:45:56;;;;;;;8.25;1.95;;;8.80;87.20;;;;;;5129645;27;20126;-80
2022/03/14 04:48:23;;;;;;;9.02;2.22;;;8.80;87.30;;;;;;5132020;27;20465;-80
2022/03/14 04:50:50;;;;;;;3.78;1.63;;;8.80;87.40;;;;;;5129693;27;20479;-80
2022/03/14 04:53:16;;;;;;;8.05;2.08;;;8.70;86.90;;;;;;5129037;27;20047;-79
2022/03/14 04:55:42;;;;;;;7.32;1.80;;;8.70;87.20;;;;;;5128966;27;20057;-80
2022/03/14 04:58:12;;;;;;;8.13;2.10;;;8.70;87.50;;;;;;5129192;27;20060;-79
2022/03/14 05:00:38;;;;;;;5.13;2.05;;;8.70;87.40;;;;;;5129340;27;20376;-79
2022/03/14 05:03:05;;;;;;;7.28;2.10;;;8.70;87.50;;;;;;5131342;27;20038;-79
2022/03/14 05:05:31;;;;;;;7.05;2.00;;;8.70;87.40;;;;;;5129111;27;20023;-80
2022/03/14 05:07:57;;;;;;;4.75;2.20;;;8.70;87.60;;;;;;5110560;28;20473;-81
2022/03/14 05:10:23;;;;;;;7.00;2.17;;;8.70;87.50;;;;;;5129206;27;20027;-81
2022/03/14 05:12:49;;;;;;;6.43;1.90;;;8.70;88.10;;;;;;5130972;27;20023;-82
2022/03/14 05:15:16;;;;;;;7.65;2.15;;;8.70;88.10;;;;;;5135136;27;20513;-81
2022/03/14 05:17:42;;;;;;;7.40;1.90;;;8.70;87.70;;;;;;5132744;27;20387;-81
2022/03/14 05:20:09;;;;;;;4.38;1.67;;;8.70;88.20;;;;;;5133122;27;20027;-81
2022/03/14 05:22:48;;;;;;;8.18;1.92;;;8.70;87.60;;;;;;5115184;27;20015;-81
2022/03/14 05:25:16;;;;;;;3.83;1.85;;;8.70;87.90;;;;;;5133675;27;20031;-81
2022/03/14 05:27:42;;;;;;;5.88;1.75;;;8.70;87.60;;;;;;5134152;27;20083;-82
2022/03/14 05:30:08;;;;;;;4.88;2.08;;;8.70;87.90;;;;;;5135455;27;20035;-81
2022/03/14 05:32:35;;;;;;;7.60;2.05;;;8.70;88.00;;;;;;5133331;27;20051;-82
2022/03/14 05:35:01;;;;;;;8.18;1.85;;;8.70;88.00;;;;;;5133068;27;20023;-82
2022/03/14 05:37:27;;;;;;;5.32;1.70;;;8.70;88.00;;;;;;5133432;27;20023;-81
2022/03/14 05:39:53;;;;;;;8.95;2.47;;;8.70;88.00;;;;;;5133509;27;20563;-81
2022/03/14 05:42:18;;;;;;;12.27;2.08;;;8.60;88.20;;;;;;5130881;27;20019;-81
2022/03/14 05:44:45;;;;;;;7.55;1.88;;;8.60;87.80;;;;;;5133391;27;20051;-81
2022/03/14 05:47:10;;;;;;;5.78;1.85;;;8.60;88.10;;;;;;5114101;27;20030;-81
2022/03/14 05:49:36;;;;;;;9.88;2.08;;;8.60;88.40;;;;;;5132411;27;20070;-81
2022/03/14 05:52:02;;;;;;;5.95;1.85;;;8.60;88.40;;;;;;5131534;27;20468;-81
2022/03/14 05:54:28;;;;;;;5.93;1.83;;;8.60;87.80;;;;;;5134351;27;20548;-81
2022/03/14 05:56:54;;;;;;;7.90;1.90;;;8.60;88.00;;;;;;5134158;27;20015;-81
2022/03/14 05:59:20;;;;;;;9.60;2.15;;;8.50;88.10;;;;;;5132746;27;20033;-81
2022/03/14 06:01:50;;;;;;;9.45;2.15;;;8.50;88.10;;;;;;5132628;27;20031;-81
2022/03/14 06:04:16;;;;;;;8.77;2.17;;;8.50;88.60;;;;;;5132704;27;20025;-81
2022/03/14 06:06:42;;;;;;;6.88;1.73;;;8.50;89.20;;;;;;5114456;27;20030;-81
2022/03/14 06:09:08;;;;;;;6.55;1.80;;;8.50;87.80;;;;;;5116794;27;20039;-81
2022/03/14 06:11:34;;;;;;;5.38;1.77;;;8.50;88.60;;;;;;5114205;27;20081;-80
2022/03/14 06:14:00;;;;;;;6.15;1.38;;;8.50;88.90;;;;;;5132459;27;20387;-80
2022/03/14 06:16:25;;;;;;;7.57;1.60;;;8.50;88.90;;;;;;5132637;27;20031;-81
2022/03/14 06:18:51;;;;;;;6.25;1.80;;;8.50;88.50;;;;;;5116266;27;20019;-81
2022/03/14 06:21:17;;;;;;;6.03;1.70;;;8.50;88.40;;;;;;5134642;27;20390;-81
2022/03/14 06:23:43;;;;;;;5.90;1.67;;;8.50;87.70;;;;;;5131796;27;20070;-81
2022/03/14 06:26:09;;;;;;;6.45;1.67;;;8.50;88.60;;;;;;5132130;27;20088;-81
2022/03/14 06:28:34;;;;;;;7.65;2.00;;;8.40;88.30;;;;;;5112357;27;20039;-82
2022/03/14 06:31:00;;;;;;;5.68;1.88;;;8.40;88.30;;;;;;5131260;27;20392;-82
2022/03/14 06:33:26;;;;;;;6.25;1.88;;;8.40;88.70;;;;;;5115025;27;20076;-82
2022/03/14 06:35:51;;;;;;;5.40;1.60;;;8.40;88.20;;;;;;5132915;27;20104;-81
2022/03/14 06:38:17;;;;;;;6.80;1.75;;;8.40;88.50;;;;;;5132155;27;20011;-81
2022/03/14 06:40:43;;;;;;;5.95;2.13;;;8.30;89.00;;;;;;5131772;27;20027;-82
2022/03/14 06:43:12;;;;;;;5.40;2.30;;;8.40;88.80;;;;;;5132014;27;20023;-80
2022/03/14 06:45:39;;;;;;;6.03;1.90;;;8.30;88.90;;;;;;5131918;27;20122;-80
2022/03/14 06:48:05;;;;;;;5.15;1.45;;;8.40;89.30;;;;;;5115291;27;20031;-81
2022/03/14 06:50:31;;;;;;;7.50;1.80;;;8.30;88.60;;;;;;5131801;27;20025;-81
2022/03/14 06:52:58;;;;;;;4.28;1.63;;;8.30;88.60;;;;;;5131677;27;20019;-80
2022/03/14 06:55:24;;;;;;;6.25;2.10;;;8.30;88.40;;;;;;5131735;27;20023;-80
2022/03/14 06:57:50;;;;;;;5.97;1.92;;;8.30;88.60;;;;;;5131633;27;20069;-79
2022/03/14 07:00:17;;;;;;;4.95;1.73;;;8.30;88.40;;;;;;5114996;27;20495;-83
2022/03/14 07:02:42;;;;;;;7.15;1.90;;;8.40;88.40;;;;;;5131101;27;20066;-81
2022/03/14 07:05:13;;;;;;;6.20;2.08;;;8.40;88.70;;;;;;5132106;27;20072;-81
2022/03/14 07:07:40;;;;;;;8.00;2.20;;;8.40;88.80;;;;;;5131688;27;20487;-81
2022/03/14 07:10:07;;;;;;;9.13;2.47;;;8.40;88.50;;;;;;5129991;27;20032;-81
2022/03/14 07:12:39;;;;;;;6.25;1.95;;;8.50;88.80;;;;;;5132159;27;20076;-81
2022/03/14 07:15:05;;;;;;;8.38;2.13;;;8.50;88.30;;;;;;5131713;27;20066;-81
2022/03/14 07:17:30;;;;;;;6.55;1.80;;;8.50;88.40;;;;;;5112662;27;20038;-81
2022/03/14 07:19:56;;;;;;;5.45;1.80;;;8.40;89.50;;;;;;5131237;27;20154;-81
2022/03/14 07:22:21;;;;;;;5.63;1.90;;;8.50;88.70;;;;;;5112539;27;20181;-82
2022/03/14 07:24:47;;;;;;;7.75;2.33;;;8.50;88.70;;;;;;5130270;27;20027;-81
2022/03/14 07:27:15;;;;;;;5.85;2.30;;;8.50;88.20;;;;;;5131483;27;20015;-81
2022/03/14 07:29:40;;;;;;;6.80;2.10;;;8.50;88.50;;;;;;5130712;27;20521;-80
2022/03/14 07:32:06;;;;;;;6.95;2.20;;;8.60;88.90;;;;;;5131192;27;20027;-81
2022/03/14 07:34:32;;;;;;;7.47;2.10;;;8.60;88.70;;;;;;5129837;27;20026;-81
2022/03/14 07:36:58;;;;;;;7.05;2.15;;;8.60;88.70;;;;;;5131570;27;20050;-81
2022/03/14 07:39:23;;;;;;;6.40;1.75;;;8.60;88.30;;;;;;5115116;27;20031;-80
2022/03/14 07:41:49;;;;;;;4.38;1.90;;;8.70;88.70;;;;;;5131539;27;20058;-81
2022/03/14 07:44:14;;;;;;;4.90;2.10;;;8.70;88.20;;;;;;5131393;27;20053;-81
2022/03/14 07:46:40;;;;;;;6.65;2.33;;;8.70;88.60;;;;;;5127615;27;20459;-79
2022/03/14 07:49:08;;;;;;;5.88;1.85;;;8.90;88.90;;;;;;5125596;27;20035;-76
2022/03/14 07:51:33;;;;;;;8.00;2.33;;;8.90;88.90;;;;;;5122906;27;20044;-77
2022/03/14 07:53:59;;;;;;;7.32;2.00;;;9.00;89.10;;;;;;5116057;27;20035;-76
2022/03/14 07:56:25;;;;;;;7.00;2.15;;;9.00;88.90;;;;;;5134962;27;20019;-77
2022/03/14 07:58:50;;;;;;;5.47;1.90;;;9.10;88.30;;;;;;5155429;27;20506;-75
2022/03/14 08:01:19;;;;;;;5.82;2.15;;;9.10;88.20;;;;;;5113939;27;20090;-75
2022/03/14 08:03:45;;;;;;;6.05;1.98;;;9.20;88.30;;;;;;5141355;27;20080;-75
2022/03/14 08:06:18;;;;;;;6.05;2.10;;;9.30;88.20;;;;;;5135487;27;20031;-75
2022/03/14 08:08:43;;;;;;;5.15;1.92;;;9.30;87.90;;;;;;5136091;27;20129;-74
2022/03/14 08:11:09;;;;;;;5.78;1.98;;;9.30;87.80;;;;;;5119812;27;20110;-75
2022/03/14 08:13:34;;;;;;;5.65;1.98;;;9.30;87.60;;;;;;5131351;27;20023;-75
2022/03/14 08:16:00;;;;;;;6.15;2.15;;;9.40;87.70;;;;;;5138684;27;20038;-80
2022/03/14 08:18:26;;;;;;;6.07;2.00;;;9.50;87.80;;;;;;5136629;27;20518;-85
2022/03/14 08:20:57;;;;;;;7.05;2.10;;;9.50;86.90;;;;;;5129827;27;20033;-82
2022/03/14 08:23:22;;;;;;;5.93;1.83;;;9.50;86.90;;;;;;5133704;27;20067;-85
2022/03/14 08:25:48;;;;;;;5.05;1.70;;;9.50;86.90;;;;;;5130402;27;20023;-85
2022/03/14 08:28:14;;;;;;;5.68;2.10;;;9.50;86.60;;;;;;5123413;27;20837;-85
2022/03/14 08:30:39;;;;;;;6.18;1.90;;;9.50;86.80;;;;;;5115528;27;20521;-85
2022/03/14 08:33:06;;;;;;;5.65;2.00;;;9.50;86.60;;;;;;5140258;27;20079;-85
2022/03/14 08:35:32;;;;;;;6.15;2.05;;;9.50;86.70;;;;;;5135412;27;20038;-82
2022/03/14 08:37:58;;;;;;;6.75;2.30;;;9.50;86.40;;;;;;5132381;27;20019;-82
2022/03/14 08:40:25;;;;;;;4.57;1.95;;;9.50;86.90;;;;;;5143098;27;20065;-82
2022/03/14 08:42:53;;;;;;;5.00;1.92;;;9.50;86.60;;;;;;5114151;28;20083;-82
2022/03/14 08:45:19;;;;;;;5.25;2.00;;;9.50;86.70;;;;;;5141638;27;20039;-83
2022/03/14 08:47:45;;;;;;;4.50;1.80;;;9.40;86.70;;;;;;5135873;27;20026;-83
2022/03/14 08:50:12;;;;;;;7.03;1.98;;;9.50;86.90;;;;;;5136816;27;20457;-82
2022/03/14 08:52:38;;;;;;;4.32;1.75;;;9.50;86.90;;;;;;5127049;27;20030;-82
2022/03/14 08:55:05;;;;;;;6.78;1.98;;;9.60;87.90;;;;;;5116564;27;20076;-82
2022/03/14 08:57:31;;;;;;;5.47;1.50;;;9.60;86.70;;;;;;5116963;27;20027;-82
2022/03/14 08:59:57;;;;;;;5.03;2.10;;;9.60;86.40;;;;;;5135550;27;20052;-83
2022/03/14 09:02:23;;;;;;;4.00;1.27;;;9.70;85.90;;;;;;5134661;27;20015;-84
2022/03/14 09:04:49;;;;;;;5.28;1.63;;;9.70;85.70;;;;;;5137862;27;20023;-84
2022/03/14 09:07:28;;;;;;;4.45;1.80;;;9.70;85.10;;;;;;5134324;27;20031;-84
2022/03/14 09:09:59;;;;;;;4.75;1.60;;;9.70;85.50;;;;;;5136850;27;20050;-84
2022/03/14 09:12:24;;;;;;;3.95;1.30;;;9.70;85.10;;;;;;5135693;27;20018;-84
2022/03/14 09:14:51;;;;;;;4.63;1.50;;;9.80;85.40;;;;;;5133856;27;20038;-84
2022/03/14 09:17:17;;;;;;;5.45;1.42;;;9.90;85.20;;;;;;5120557;27;20019;-84
2022/03/14 09:19:43;;;;;;;4.55;1.40;;;9.90;84.40;;;;;;5132417;27;20041;-83
2022/03/14 09:22:09;;;;;;;4.50;1.75;;;10.00;84.30;;;;;;5133587;27;20019;-86
2022/03/14 09:24:37;;;;;;;7.03;1.67;;;10.00;84.40;;;;;;5134364;27;20558;-83
2022/03/14 09:27:06;;;;;;;4.32;1.67;;;10.10;82.90;;;;;;5135048;27;20027;-85
2022/03/14 09:29:32;;;;;;;3.28;1.30;;;10.10;82.30;;;;;;5133803;27;20042;-84
2022/03/14 09:31:58;;;;;;;3.15;1.48;;;10.10;82.30;;;;;;5133719;27;20031;-85
2022/03/14 09:34:24;;;;;;;5.45;1.40;;;10.20;82.10;;;;;;5133886;27;20519;-84
2022/03/14 09:36:50;;;;;;;4.72;1.40;;;10.20;81.50;;;;;;5133663;27;20020;-84
2022/03/14 09:39:16;;;;;;;4.70;1.95;;;10.20;81.20;;;;;;5136043;27;20390;-84
2022/03/14 09:41:42;;;;;;;8.25;2.05;;;10.30;81.50;;;;;;5133375;27;20543;-85
2022/03/14 09:44:10;;;;;;;4.80;1.45;;;10.30;81.90;;;;;;5133981;27;20483;-83
2022/03/14 09:46:38;;;;;;;8.80;2.40;;;10.40;81.60;;;;;;5114117;27;20054;-83
2022/03/14 09:49:09;;;;;;;4.88;1.63;;;10.50;82.10;;;;;;5135081;27;20019;-83
2022/03/14 09:51:38;;;;;;;5.15;1.75;;;10.50;82.00;;;;;;5119016;27;20027;-84
2022/03/14 09:54:09;;;;;;;4.88;1.48;;;10.60;82.00;;;;;;5137349;27;20037;-84
2022/03/14 09:56:37;;;;;;;4.72;1.50;;;10.60;82.50;;;;;;5135703;27;20102;-83
2022/03/14 09:59:04;;;;;;;3.63;1.40;;;10.70;81.80;;;;;;5137058;27;20472;-84
2022/03/14 10:01:30;;;;;;;3.40;1.02;;;10.80;81.00;;;;;;5136943;27;20031;-85
2022/03/14 10:03:56;;;;;;;7.50;1.45;;;10.90;80.20;;;;;;5135006;27;20027;-84
2022/03/14 10:06:22;;;;;;;4.22;1.42;;;10.90;77.10;;;;;;5137267;27;20018;-83
2022/03/14 10:08:48;;;;;;;3.72;1.50;;;11.00;76.30;;;;;;5133532;27;20035;-84
2022/03/14 10:11:14;;;;;;;4.20;1.30;;;11.10;76.10;;;;;;5133480;27;20418;-84
2022/03/14 10:13:39;;;;;;;3.65;1.50;;;11.10;76.40;;;;;;5132849;27;20042;-84
2022/03/14 10:16:06;;;;;;;5.43;1.30;;;11.20;77.40;;;;;;5133055;27;20019;-84
2022/03/14 10:18:53;;;;;;;4.75;1.58;;;11.30;76.90;;;;;;5135849;27;20021;-84
2022/03/14 10:21:28;;;;;;;5.25;1.25;;;11.40;78.30;;;;;;5134525;27;20019;-83
2022/03/14 10:23:59;;;;;;;3.85;1.40;;;11.40;78.00;;;;;;5132183;27;20024;-84
2022/03/14 10:26:25;;;;;;;3.97;1.25;;;11.50;78.10;;;;;;5132577;27;20034;-83
2022/03/14 10:28:55;;;;;;;3.35;1.00;;;11.50;76.80;;;;;;5114170;27;20035;-83
2022/03/14 10:31:32;;;;;;;3.83;1.10;;;11.60;75.00;;;;;;5133420;27;20038;-82
2022/03/14 10:34:04;;;;;;;4.07;1.10;;;11.70;75.90;;;;;;5133224;27;20023;-82
2022/03/14 10:36:42;;;;;;;4.43;1.10;;;11.70;74.60;;;;;;5133718;27;20197;-82
2022/03/14 10:39:22;;;;;;;2.97;1.08;;;11.90;75.90;;;;;;5132707;27;20133;-82
2022/03/14 10:42:02;;;;;;;3.90;1.08;;;11.90;74.70;;;;;;5132991;27;20031;-82
2022/03/14 10:44:28;;;;;;;2.95;1.27;;;12.00;75.60;;;;;;5111038;27;20015;-81
2022/03/14 10:47:01;;;;;;;6.20;1.05;;;12.00;74.70;;;;;;5132687;27;20059;-82
2022/03/14 10:49:28;;;;;;;2.78;1.00;;;12.00;73.70;;;;;;5136721;27;20039;-83
2022/03/14 10:51:59;;;;;;;3.03;0.90;;;12.00;73.00;;;;;;5116629;27;20098;-83
2022/03/14 10:54:25;;;;;;;2.65;0.93;;;12.10;72.60;;;;;;5130477;27;20080;-82
2022/03/14 10:57:12;;;;;;;4.38;1.02;;;12.10;73.50;;;;;;5114716;27;20031;-83
2022/03/14 10:59:40;;;;;;;2.50;0.93;;;12.10;71.00;;;;;;5115760;27;20053;-83
2022/03/14 11:02:11;;;;;;;3.42;1.10;;;12.20;71.50;;;;;;5136749;27;20464;-82
2022/03/14 11:04:44;;;;;;;2.60;1.10;;;12.20;70.00;;;;;;5130195;27;20042;-82
2022/03/14 11:07:10;;;;;;;3.85;1.10;;;12.20;70.70;;;;;;5132109;27;20495;-83
2022/03/14 11:09:58;;;;;;;2.08;1.05;;;12.30;72.10;;;;;;5113347;27;20027;-83
2022/03/14 11:12:27;;;;;;;3.35;1.23;;;12.30;71.70;;;;;;5118711;27;20023;-82
2022/03/14 11:14:58;;;;;;;6.05;1.38;;;12.30;72.80;;;;;;5131410;27;20540;-83
2022/03/14 11:17:29;;;;;;;2.35;1.05;;;12.30;72.80;;;;;;5131864;27;20033;-84
2022/03/14 11:19:56;;;;;;;3.13;1.10;;;12.30;71.40;;;;;;5113687;27;20031;-83
2022/03/14 11:22:23;;;;;;;3.95;1.30;;;12.40;71.30;;;;;;5113299;27;20038;-83
2022/03/14 11:24:51;;;;;;;5.05;1.33;;;12.40;71.20;;;;;;5131450;27;20398;-83
2022/03/14 11:27:21;;;;;;;3.00;0.98;;;12.40;71.10;;;;;;5133452;27;20027;-84
2022/03/14 11:29:48;;;;;;;3.97;1.20;;;12.50;69.80;;;;;;5135778;27;20130;-83
2022/03/14 11:32:15;;;;;;;2.15;1.00;;;12.50;71.00;;;;;;5135297;27;20020;-83
2022/03/14 11:34:42;;;;;;;3.22;1.08;;;12.60;71.10;;;;;;5138578;27;20035;-83
2022/03/14 11:37:09;;;;;;;3.30;1.17;;;12.50;70.80;;;;;;5117169;27;20019;-83
2022/03/14 11:39:36;;;;;;;3.90;1.17;;;12.50;68.40;;;;;;5137475;27;20034;-84
2022/03/14 11:42:01;;;;;;;4.15;1.30;;;12.60;65.60;;;;;;5131889;27;20020;-86
2022/03/14 11:44:28;;;;;;;5.68;1.27;;;12.60;66.60;;;;;;5130111;27;20035;-81
2022/03/14 11:46:54;;;;;;;3.35;0.98;;;12.60;65.10;;;;;;5131483;27;20058;-84
2022/03/14 11:49:23;;;;;;;3.90;0.93;;;12.70;64.00;;;;;;5131444;27;20527;-83
2022/03/14 11:51:48;;;;;;;5.05;1.10;;;12.80;64.70;;;;;;5130939;27;20095;-88
2022/03/14 11:54:14;;;;;;;2.47;0.90;;;12.80;65.40;;;;;;5133976;27;20468;-86
2022/03/14 11:57:10;;;;;;;3.85;1.50;;;12.90;64.60;;;;;;5131498;27;20376;-82
2022/03/14 11:59:36;;;;;;;3.38;0.90;;;12.90;65.90;;;;;;5099625;27;20027;-83
2022/03/14 12:02:06;;;;;;;4.80;1.13;;;12.90;62.90;;;;;;5131330;27;20022;-85
2022/03/14 12:04:37;;;;;;;2.80;1.20;;;13.00;63.30;;;;;;5131439;27;20038;-84
2022/03/14 12:07:05;;;;;;;2.88;1.10;;;13.00;62.40;;;;;;5130859;27;20011;-85
2022/03/14 12:09:31;;;;;;;2.55;0.95;;;13.00;63.20;;;;;;5132714;27;20039;-83
2022/03/14 12:12:16;;;;;;;2.97;1.00;;;12.90;64.10;;;;;;5132053;27;20031;-83
2022/03/14 12:14:42;;;;;;;3.20;0.93;;;13.00;62.30;;;;;;5116573;27;20407;-83
2022/03/14 12:17:14;;;;;;;2.15;0.80;;;13.10;60.80;;;;;;5112157;27;20023;-83
2022/03/14 12:20:04;;;;;;;2.88;1.02;;;13.10;60.90;;;;;;5131022;27;20054;-81
2022/03/14 12:22:30;;;;;;;2.88;0.80;;;13.10;61.80;;;;;;5100839;27;20031;-81
2022/03/14 12:25:00;;;;;;;5.60;1.05;;;13.10;62.10;;;;;;5131082;27;20498;-81
2022/03/14 12:27:29;;;;;;;4.57;1.10;;;13.20;61.90;;;;;;5132618;27;20016;-79
2022/03/14 12:29:56;;;;;;;2.17;0.85;;;13.30;62.40;;;;;;5111743;27;20057;-80
2022/03/14 12:32:28;;;;;;;5.05;0.95;;;13.40;61.50;;;;;;5130839;27;20023;-80
2022/03/14 12:34:56;;;;;;;4.20;0.73;;;13.40;62.20;;;;;;5130907;27;20028;-81
2022/03/14 12:37:33;;;;;;;2.08;0.70;;;13.40;60.40;;;;;;5130394;27;20015;-81
2022/03/14 12:39:59;;;;;;;2.63;0.80;;;13.30;60.20;;;;;;5097217;27;20031;-81
2022/03/14 12:42:25;;;;;;;3.17;0.90;;;13.30;62.60;;;;;;5133038;28;20020;-81
2022/03/14 12:45:14;;;;;;;3.50;1.08;;;13.30;59.90;;;;;;5112934;28;20445;-81
2022/03/14 12:47:41;;;;;;;1.95;0.88;;;13.40;62.50;;;;;;5112298;28;20031;-80
2022/03/14 12:50:07;;;;;;;3.92;0.90;;;13.50;61.30;;;;;;5130093;28;20035;-80
2022/03/14 12:52:59;;;;;;;2.85;1.00;;;13.50;62.60;;;;;;5130628;27;20365;-80